sensor_id;sensor_type;location;lat;lon;timestamp;temperature;humidity
15296;DHT22;7749;49.964;7.890;2022-08-19T00:01:57;22.20;1.00
15296;DHT22;7749;49.964;7.890;2022-08-19T00:04:28;22.10;1.00
15296;DHT22;7749;49.964;7.890;2022-08-19T00:06:58;22.10;1.00
15296;DHT22;7749;49.964;7.890;2022-08-19T00:09:27;22.00;1.00
15296;DHT22;7749;49.964;7.890;2022-08-19T00:11:57;22.00;1.00
15296;DHT22;7749;49.964;7.890;2022-08-19T00:14:26;22.00;1.00
15296;DHT22;7749;49.964;7.890;2022-08-19T00:16:54;22.00;1.00
15296;DHT22;7749;49.964;7.890;2022-08-19T00:19:23;21.90;1.00
15296;DHT22;7749;49.964;7.890;2022-08-19T00:21:51;21.90;1.00
15296;DHT22;7749;49.964;7.890;2022-08-19T00:24:19;21.90;1.00
15296;DHT22;7749;49.964;7.890;2022-08-19T00:26:47;21.90;1.00
15296;DHT22;7749;49.964;7.890;2022-08-19T00:29:16;21.90;1.00
15296;DHT22;7749;49.964;7.890;2022-08-19T00:31:45;21.90;1.00
15296;DHT22;7749;49.964;7.890;2022-08-19T00:34:13;21.80;1.00
15296;DHT22;7749;49.964;7.890;2022-08-19T00:36:42;21.90;1.00
15296;DHT22;7749;49.964;7.890;2022-08-19T00:39:10;21.80;1.00
15296;DHT22;7749;49.964;7.890;2022-08-19T00:41:40;21.80;1.00
15296;DHT22;7749;49.964;7.890;2022-08-19T00:44:17;21.80;1.00
15296;DHT22;7749;49.964;7.890;2022-08-19T00:46:51;21.70;1.00
15296;DHT22;7749;49.964;7.890;2022-08-19T00:49:49;21.70;1.00
15296;DHT22;7749;49.964;7.890;2022-08-19T00:52:32;21.70;1.00
15296;DHT22;7749;49.964;7.890;2022-08-19T00:55:03;21.70;1.00
15296;DHT22;7749;49.964;7.890;2022-08-19T00:57:35;21.70;1.00
15296;DHT22;7749;49.964;7.890;2022-08-19T01:00:10;21.70;1.00
15296;DHT22;7749;49.964;7.890;2022-08-19T01:02:41;21.70;1.00
15296;DHT22;7749;49.964;7.890;2022-08-19T01:05:12;21.60;1.00
15296;DHT22;7749;49.964;7.890;2022-08-19T01:07:41;21.60;1.00
15296;DHT22;7749;49.964;7.890;2022-08-19T01:10:12;21.60;1.00
15296;DHT22;7749;49.964;7.890;2022-08-19T01:12:40;21.50;1.00
15296;DHT22;7749;49.964;7.890;2022-08-19T01:15:10;21.50;1.00
15296;DHT22;7749;49.964;7.890;2022-08-19T01:17:40;21.50;1.00
15296;DHT22;7749;49.964;7.890;2022-08-19T01:20:20;21.50;1.00
15296;DHT22;7749;49.964;7.890;2022-08-19T01:22:51;21.40;1.00
15296;DHT22;7749;49.964;7.890;2022-08-19T01:25:23;21.40;1.00
15296;DHT22;7749;49.964;7.890;2022-08-19T01:27:53;21.30;1.00
15296;DHT22;7749;49.964;7.890;2022-08-19T01:30:30;21.30;1.00
15296;DHT22;7749;49.964;7.890;2022-08-19T01:32:58;21.30;1.00
15296;DHT22;7749;49.964;7.890;2022-08-19T01:35:29;21.30;1.00
15296;DHT22;7749;49.964;7.890;2022-08-19T01:38:03;21.30;1.00
15296;DHT22;7749;49.964;7.890;2022-08-19T01:40:37;21.30;1.00
15296;DHT22;7749;49.964;7.890;2022-08-19T01:43:06;21.30;1.00
15296;DHT22;7749;49.964;7.890;2022-08-19T01:45:34;21.20;1.00
15296;DHT22;7749;49.964;7.890;2022-08-19T01:48:02;21.20;1.00
15296;DHT22;7749;49.964;7.890;2022-08-19T01:50:32;21.10;1.00
15296;DHT22;7749;49.964;7.890;2022-08-19T01:53:02;21.10;1.00
15296;DHT22;7749;49.964;7.890;2022-08-19T01:55:39;21.10;1.00
15296;DHT22;7749;49.964;7.890;2022-08-19T01:58:12;21.10;1.00
15296;DHT22;7749;49.964;7.890;2022-08-19T02:00:42;21.00;1.00
15296;DHT22;7749;49.964;7.890;2022-08-19T02:03:10;21.10;1.00
15296;DHT22;7749;49.964;7.890;2022-08-19T02:05:40;21.00;1.00
15296;DHT22;7749;49.964;7.890;2022-08-19T02:08:08;21.00;1.00
15296;DHT22;7749;49.964;7.890;2022-08-19T02:10:40;21.00;1.00
15296;DHT22;7749;49.964;7.890;2022-08-19T02:13:11;21.00;1.00
15296;DHT22;7749;49.964;7.890;2022-08-19T02:15:42;20.90;1.00
15296;DHT22;7749;49.964;7.890;2022-08-19T02:18:10;20.90;1.00
15296;DHT22;7749;49.964;7.890;2022-08-19T02:20:38;20.90;1.00
15296;DHT22;7749;49.964;7.890;2022-08-19T02:23:08;20.80;1.00
15296;DHT22;7749;49.964;7.890;2022-08-19T02:25:47;20.80;1.00
15296;DHT22;7749;49.964;7.890;2022-08-19T02:28:15;20.80;1.00
15296;DHT22;7749;49.964;7.890;2022-08-19T02:30:47;20.80;1.00
15296;DHT22;7749;49.964;7.890;2022-08-19T02:33:15;20.80;1.00
15296;DHT22;7749;49.964;7.890;2022-08-19T02:35:44;20.60;1.00
15296;DHT22;7749;49.964;7.890;2022-08-19T02:38:14;20.60;1.00
15296;DHT22;7749;49.964;7.890;2022-08-19T02:41:00;20.60;1.00
15296;DHT22;7749;49.964;7.890;2022-08-19T02:43:29;20.50;1.00
15296;DHT22;7749;49.964;7.890;2022-08-19T02:46:02;20.50;1.00
15296;DHT22;7749;49.964;7.890;2022-08-19T02:48:38;20.50;1.00
15296;DHT22;7749;49.964;7.890;2022-08-19T02:51:05;20.50;1.00
15296;DHT22;7749;49.964;7.890;2022-08-19T02:53:33;20.40;1.00
15296;DHT22;7749;49.964;7.890;2022-08-19T02:56:01;20.40;1.30
15296;DHT22;7749;49.964;7.890;2022-08-19T02:58:29;20.30;3.10
15296;DHT22;7749;49.964;7.890;2022-08-19T03:00:59;20.30;4.60
15296;DHT22;7749;49.964;7.890;2022-08-19T03:03:27;20.30;5.90
15296;DHT22;7749;49.964;7.890;2022-08-19T03:06:15;20.30;6.40
15296;DHT22;7749;49.964;7.890;2022-08-19T03:08:45;20.30;5.70
15296;DHT22;7749;49.964;7.890;2022-08-19T03:13:51;20.40;1.00
15296;DHT22;7749;49.964;7.890;2022-08-19T03:16:22;20.50;1.00
15296;DHT22;7749;49.964;7.890;2022-08-19T03:18:50;20.40;1.00
15296;DHT22;7749;49.964;7.890;2022-08-19T03:21:22;20.40;1.00
15296;DHT22;7749;49.964;7.890;2022-08-19T03:23:55;20.40;1.00
15296;DHT22;7749;49.964;7.890;2022-08-19T03:26:23;20.40;1.00
15296;DHT22;7749;49.964;7.890;2022-08-19T03:28:50;20.40;1.00
15296;DHT22;7749;49.964;7.890;2022-08-19T03:31:26;20.40;1.00
15296;DHT22;7749;49.964;7.890;2022-08-19T03:34:17;20.30;4.30
15296;DHT22;7749;49.964;7.890;2022-08-19T03:36:46;20.30;9.60
15296;DHT22;7749;49.964;7.890;2022-08-19T03:39:14;20.20;13.70
15296;DHT22;7749;49.964;7.890;2022-08-19T03:41:44;20.10;22.90
15296;DHT22;7749;49.964;7.890;2022-08-19T03:44:18;20.10;28.10
15296;DHT22;7749;49.964;7.890;2022-08-19T03:46:51;19.90;29.70
15296;DHT22;7749;49.964;7.890;2022-08-19T03:49:20;19.90;36.80
15296;DHT22;7749;49.964;7.890;2022-08-19T03:51:56;20.00;31.70
15296;DHT22;7749;49.964;7.890;2022-08-19T03:54:25;20.00;31.50
15296;DHT22;7749;49.964;7.890;2022-08-19T03:56:55;19.90;32.70
15296;DHT22;7749;49.964;7.890;2022-08-19T03:59:29;19.80;36.90
15296;DHT22;7749;49.964;7.890;2022-08-19T04:01:59;19.90;39.90
15296;DHT22;7749;49.964;7.890;2022-08-19T04:04:27;19.90;42.90
15296;DHT22;7749;49.964;7.890;2022-08-19T04:06:56;19.80;43.10
15296;DHT22;7749;49.964;7.890;2022-08-19T04:09:24;19.80;45.70
15296;DHT22;7749;49.964;7.890;2022-08-19T04:11:54;19.80;44.60
15296;DHT22;7749;49.964;7.890;2022-08-19T04:14:27;19.70;51.20
15296;DHT22;7749;49.964;7.890;2022-08-19T04:16:58;19.70;55.20
15296;DHT22;7749;49.964;7.890;2022-08-19T04:19:29;19.70;56.80
15296;DHT22;7749;49.964;7.890;2022-08-19T04:22:00;19.70;55.80
15296;DHT22;7749;49.964;7.890;2022-08-19T04:24:28;19.70;57.80
15296;DHT22;7749;49.964;7.890;2022-08-19T04:26:55;19.70;63.70
15296;DHT22;7749;49.964;7.890;2022-08-19T04:29:24;19.70;64.70
15296;DHT22;7749;49.964;7.890;2022-08-19T04:31:54;19.70;61.80
15296;DHT22;7749;49.964;7.890;2022-08-19T04:34:25;19.70;62.70
15296;DHT22;7749;49.964;7.890;2022-08-19T04:36:55;19.70;61.00
15296;DHT22;7749;49.964;7.890;2022-08-19T04:39:30;19.60;61.30
15296;DHT22;7749;49.964;7.890;2022-08-19T04:42:28;19.60;62.70
15296;DHT22;7749;49.964;7.890;2022-08-19T04:45:11;19.60;63.90
15296;DHT22;7749;49.964;7.890;2022-08-19T04:47:44;19.50;74.90
15296;DHT22;7749;49.964;7.890;2022-08-19T04:50:28;19.50;81.90
15296;DHT22;7749;49.964;7.890;2022-08-19T04:52:56;19.50;87.50
15296;DHT22;7749;49.964;7.890;2022-08-19T04:55:24;19.60;88.00
15296;DHT22;7749;49.964;7.890;2022-08-19T04:57:55;19.50;91.80
15296;DHT22;7749;49.964;7.890;2022-08-19T05:00:23;19.50;86.80
15296;DHT22;7749;49.964;7.890;2022-08-19T05:02:51;19.40;90.10
15296;DHT22;7749;49.964;7.890;2022-08-19T05:05:19;19.40;94.90
15296;DHT22;7749;49.964;7.890;2022-08-19T05:07:47;19.40;93.60
15296;DHT22;7749;49.964;7.890;2022-08-19T05:10:15;19.40;94.60
15296;DHT22;7749;49.964;7.890;2022-08-19T05:12:42;19.40;93.60
15296;DHT22;7749;49.964;7.890;2022-08-19T05:15:10;19.50;91.80
15296;DHT22;7749;49.964;7.890;2022-08-19T05:17:41;19.50;91.70
15296;DHT22;7749;49.964;7.890;2022-08-19T05:20:28;19.50;87.00
15296;DHT22;7749;49.964;7.890;2022-08-19T05:23:15;19.40;88.10
15296;DHT22;7749;49.964;7.890;2022-08-19T05:25:50;19.50;82.60
15296;DHT22;7749;49.964;7.890;2022-08-19T05:28:19;19.50;77.20
15296;DHT22;7749;49.964;7.890;2022-08-19T05:30:47;19.50;77.10
15296;DHT22;7749;49.964;7.890;2022-08-19T05:33:18;19.60;70.20
15296;DHT22;7749;49.964;7.890;2022-08-19T05:35:46;19.50;72.90
15296;DHT22;7749;49.964;7.890;2022-08-19T05:38:19;19.50;79.90
15296;DHT22;7749;49.964;7.890;2022-08-19T05:40:47;19.50;87.40
15296;DHT22;7749;49.964;7.890;2022-08-19T05:43:15;19.50;81.20
15296;DHT22;7749;49.964;7.890;2022-08-19T05:45:44;19.50;82.40
15296;DHT22;7749;49.964;7.890;2022-08-19T05:48:12;19.50;78.40
15296;DHT22;7749;49.964;7.890;2022-08-19T05:50:41;19.50;87.40
15296;DHT22;7749;49.964;7.890;2022-08-19T05:53:09;19.50;89.10
15296;DHT22;7749;49.964;7.890;2022-08-19T05:55:37;19.60;83.30
15296;DHT22;7749;49.964;7.890;2022-08-19T05:58:07;19.50;90.40
15296;DHT22;7749;49.964;7.890;2022-08-19T06:00:36;19.60;79.30
15296;DHT22;7749;49.964;7.890;2022-08-19T06:03:04;19.70;69.00
15296;DHT22;7749;49.964;7.890;2022-08-19T06:05:40;19.70;57.00
15296;DHT22;7749;49.964;7.890;2022-08-19T06:08:18;19.80;57.60
15296;DHT22;7749;49.964;7.890;2022-08-19T06:11:28;20.00;28.20
15296;DHT22;7749;49.964;7.890;2022-08-19T06:14:03;20.10;32.00
15296;DHT22;7749;49.964;7.890;2022-08-19T06:16:31;20.20;17.70
15296;DHT22;7749;49.964;7.890;2022-08-19T06:19:05;20.30;19.50
15296;DHT22;7749;49.964;7.890;2022-08-19T06:21:36;20.40;2.70
15296;DHT22;7749;49.964;7.890;2022-08-19T06:24:09;20.40;6.70
15296;DHT22;7749;49.964;7.890;2022-08-19T06:26:39;20.60;1.00
15296;DHT22;7749;49.964;7.890;2022-08-19T06:29:08;20.70;1.00
15296;DHT22;7749;49.964;7.890;2022-08-19T06:31:53;20.80;1.00
15296;DHT22;7749;49.964;7.890;2022-08-19T06:34:21;20.80;1.00
15296;DHT22;7749;49.964;7.890;2022-08-19T06:36:50;21.00;1.00
15296;DHT22;7749;49.964;7.890;2022-08-19T06:39:25;21.10;1.00
15296;DHT22;7749;49.964;7.890;2022-08-19T06:41:56;21.20;1.00
15296;DHT22;7749;49.964;7.890;2022-08-19T06:44:27;21.50;1.00
15296;DHT22;7749;49.964;7.890;2022-08-19T06:46:58;21.90;1.00
15296;DHT22;7749;49.964;7.890;2022-08-19T06:49:26;22.40;1.00
15296;DHT22;7749;49.964;7.890;2022-08-19T06:51:59;22.70;1.00
15296;DHT22;7749;49.964;7.890;2022-08-19T06:54:28;23.10;99.90
15296;DHT22;7749;49.964;7.890;2022-08-19T06:57:04;23.40;1.00
15296;DHT22;7749;49.964;7.890;2022-08-19T06:59:33;23.50;1.00
15296;DHT22;7749;49.964;7.890;2022-08-19T07:02:04;23.30;1.00
15296;DHT22;7749;49.964;7.890;2022-08-19T07:04:35;23.10;8.20
15296;DHT22;7749;49.964;7.890;2022-08-19T07:07:09;23.00;99.90
15296;DHT22;7749;49.964;7.890;2022-08-19T07:09:49;22.90;99.90
15296;DHT22;7749;49.964;7.890;2022-08-19T07:12:25;23.00;99.90
15296;DHT22;7749;49.964;7.890;2022-08-19T07:14:53;23.20;75.80
15296;DHT22;7749;49.964;7.890;2022-08-19T07:17:24;23.20;99.90
15296;DHT22;7749;49.964;7.890;2022-08-19T07:19:52;23.20;20.90
15296;DHT22;7749;49.964;7.890;2022-08-19T07:22:21;23.30;1.00
15296;DHT22;7749;49.964;7.890;2022-08-19T07:24:52;23.20;25.30
15296;DHT22;7749;49.964;7.890;2022-08-19T07:27:20;23.10;86.80
15296;DHT22;7749;49.964;7.890;2022-08-19T07:29:52;23.00;99.90
15296;DHT22;7749;49.964;7.890;2022-08-19T07:32:24;23.00;99.90
15296;DHT22;7749;49.964;7.890;2022-08-19T07:34:55;23.10;99.90
15296;DHT22;7749;49.964;7.890;2022-08-19T07:37:24;22.90;99.90
15296;DHT22;7749;49.964;7.890;2022-08-19T07:40:00;23.00;99.90
15296;DHT22;7749;49.964;7.890;2022-08-19T07:42:29;23.00;99.90
15296;DHT22;7749;49.964;7.890;2022-08-19T07:44:59;23.10;99.90
15296;DHT22;7749;49.964;7.890;2022-08-19T07:47:27;22.90;99.90
15296;DHT22;7749;49.964;7.890;2022-08-19T07:50:16;22.80;1.00
15296;DHT22;7749;49.964;7.890;2022-08-19T07:52:45;22.80;1.00
15296;DHT22;7749;49.964;7.890;2022-08-19T07:55:18;22.70;1.00
15296;DHT22;7749;49.964;7.890;2022-08-19T07:58:06;22.70;1.00
15296;DHT22;7749;49.964;7.890;2022-08-19T08:00:34;22.80;1.00
15296;DHT22;7749;49.964;7.890;2022-08-19T08:03:03;22.90;1.00
15296;DHT22;7749;49.964;7.890;2022-08-19T08:05:31;23.00;1.00
15296;DHT22;7749;49.964;7.890;2022-08-19T08:08:17;23.10;1.00
15296;DHT22;7749;49.964;7.890;2022-08-19T08:11:11;23.20;99.90
15296;DHT22;7749;49.964;7.890;2022-08-19T08:13:44;23.30;99.90
15296;DHT22;7749;49.964;7.890;2022-08-19T08:16:11;23.30;99.90
15296;DHT22;7749;49.964;7.890;2022-08-19T08:18:41;23.20;99.90
15296;DHT22;7749;49.964;7.890;2022-08-19T08:21:22;23.50;99.90
15296;DHT22;7749;49.964;7.890;2022-08-19T08:23:50;23.50;99.90
15296;DHT22;7749;49.964;7.890;2022-08-19T08:26:23;23.60;99.90
15296;DHT22;7749;49.964;7.890;2022-08-19T08:28:51;23.70;94.50
15296;DHT22;7749;49.964;7.890;2022-08-19T08:31:19;23.60;99.90
15296;DHT22;7749;49.964;7.890;2022-08-19T08:33:48;23.50;99.90
15296;DHT22;7749;49.964;7.890;2022-08-19T08:36:16;23.50;99.90
15296;DHT22;7749;49.964;7.890;2022-08-19T08:38:45;23.50;99.90
15296;DHT22;7749;49.964;7.890;2022-08-19T08:44:17;23.50;99.90
15296;DHT22;7749;49.964;7.890;2022-08-19T08:46:55;23.70;22.40
15296;DHT22;7749;49.964;7.890;2022-08-19T08:49:26;23.80;1.00
15296;DHT22;7749;49.964;7.890;2022-08-19T08:52:09;23.80;1.00
15296;DHT22;7749;49.964;7.890;2022-08-19T08:54:46;23.90;1.00
15296;DHT22;7749;49.964;7.890;2022-08-19T08:57:34;24.20;99.90
15296;DHT22;7749;49.964;7.890;2022-08-19T09:00:12;24.30;1.00
15296;DHT22;7749;49.964;7.890;2022-08-19T09:02:43;24.30;1.00
15296;DHT22;7749;49.964;7.890;2022-08-19T09:05:18;24.20;1.00
15296;DHT22;7749;49.964;7.890;2022-08-19T09:10:54;24.50;1.00
15296;DHT22;7749;49.964;7.890;2022-08-19T09:16:13;24.60;47.90
15296;DHT22;7749;49.964;7.890;2022-08-19T09:18:46;24.60;1.00
15296;DHT22;7749;49.964;7.890;2022-08-19T09:21:22;24.70;1.00
15296;DHT22;7749;49.964;7.890;2022-08-19T09:23:57;24.70;1.00
15296;DHT22;7749;49.964;7.890;2022-08-19T09:26:26;24.90;1.00
15296;DHT22;7749;49.964;7.890;2022-08-19T09:29:14;24.70;1.00
15296;DHT22;7749;49.964;7.890;2022-08-19T09:31:44;24.90;1.00
15296;DHT22;7749;49.964;7.890;2022-08-19T09:34:11;24.80;99.90
15296;DHT22;7749;49.964;7.890;2022-08-19T09:36:49;24.90;1.00
15296;DHT22;7749;49.964;7.890;2022-08-19T09:39:22;24.90;1.00
15296;DHT22;7749;49.964;7.890;2022-08-19T09:41:50;25.00;1.00
15296;DHT22;7749;49.964;7.890;2022-08-19T09:44:19;25.30;99.90
15296;DHT22;7749;49.964;7.890;2022-08-19T09:46:48;25.30;1.00
15296;DHT22;7749;49.964;7.890;2022-08-19T09:49:20;25.40;1.00
15296;DHT22;7749;49.964;7.890;2022-08-19T09:51:52;25.60;99.90
15296;DHT22;7749;49.964;7.890;2022-08-19T09:54:21;26.10;1.00
15296;DHT22;7749;49.964;7.890;2022-08-19T09:56:52;26.20;1.00
15296;DHT22;7749;49.964;7.890;2022-08-19T09:59:20;26.30;99.90
15296;DHT22;7749;49.964;7.890;2022-08-19T10:01:48;26.30;99.90
15296;DHT22;7749;49.964;7.890;2022-08-19T10:04:19;26.50;82.20
15296;DHT22;7749;49.964;7.890;2022-08-19T10:06:50;26.20;6.60
15296;DHT22;7749;49.964;7.890;2022-08-19T10:09:20;26.40;1.00
15296;DHT22;7749;49.964;7.890;2022-08-19T10:12:02;26.70;1.00
15296;DHT22;7749;49.964;7.890;2022-08-19T10:14:33;26.90;1.00
15296;DHT22;7749;49.964;7.890;2022-08-19T10:17:02;26.90;1.00
15296;DHT22;7749;49.964;7.890;2022-08-19T10:19:46;27.20;1.00
15296;DHT22;7749;49.964;7.890;2022-08-19T10:22:22;27.60;99.90
15296;DHT22;7749;49.964;7.890;2022-08-19T10:24:52;27.60;99.90
15296;DHT22;7749;49.964;7.890;2022-08-19T10:27:20;27.60;99.90
15296;DHT22;7749;49.964;7.890;2022-08-19T10:29:48;27.80;99.90
15296;DHT22;7749;49.964;7.890;2022-08-19T10:32:16;27.60;99.90
15296;DHT22;7749;49.964;7.890;2022-08-19T10:34:44;27.70;99.90
15296;DHT22;7749;49.964;7.890;2022-08-19T10:37:16;27.60;92.90
15296;DHT22;7749;49.964;7.890;2022-08-19T10:39:57;27.80;51.30
15296;DHT22;7749;49.964;7.890;2022-08-19T10:42:25;27.80;1.00
15296;DHT22;7749;49.964;7.890;2022-08-19T10:44:53;28.10;1.00
15296;DHT22;7749;49.964;7.890;2022-08-19T10:47:22;28.00;1.00
15296;DHT22;7749;49.964;7.890;2022-08-19T10:49:55;28.40;1.00
15296;DHT22;7749;49.964;7.890;2022-08-19T10:52:44;28.50;1.00
15296;DHT22;7749;49.964;7.890;2022-08-19T10:55:20;28.60;1.00
15296;DHT22;7749;49.964;7.890;2022-08-19T10:58:13;28.40;1.00
15296;DHT22;7749;49.964;7.890;2022-08-19T11:00:50;28.30;1.00
15296;DHT22;7749;49.964;7.890;2022-08-19T11:03:18;28.60;1.00
15296;DHT22;7749;49.964;7.890;2022-08-19T11:05:46;29.10;1.00
15296;DHT22;7749;49.964;7.890;2022-08-19T11:08:13;29.70;1.00
15296;DHT22;7749;49.964;7.890;2022-08-19T11:10:52;29.80;1.00
15296;DHT22;7749;49.964;7.890;2022-08-19T11:13:23;30.20;1.00
15296;DHT22;7749;49.964;7.890;2022-08-19T11:16:09;31.20;1.00
15296;DHT22;7749;49.964;7.890;2022-08-19T11:18:41;33.00;1.00
15296;DHT22;7749;49.964;7.890;2022-08-19T11:21:31;34.70;99.90
15296;DHT22;7749;49.964;7.890;2022-08-19T11:24:05;35.60;99.90
15296;DHT22;7749;49.964;7.890;2022-08-19T11:26:34;37.40;99.90
15296;DHT22;7749;49.964;7.890;2022-08-19T11:29:03;37.40;99.90
15296;DHT22;7749;49.964;7.890;2022-08-19T11:31:34;36.80;99.90
15296;DHT22;7749;49.964;7.890;2022-08-19T11:34:06;36.80;99.90
15296;DHT22;7749;49.964;7.890;2022-08-19T11:36:45;37.00;99.90
15296;DHT22;7749;49.964;7.890;2022-08-19T11:39:15;36.80;99.90
15296;DHT22;7749;49.964;7.890;2022-08-19T11:41:44;38.10;99.90
15296;DHT22;7749;49.964;7.890;2022-08-19T11:44:11;39.00;99.90
15296;DHT22;7749;49.964;7.890;2022-08-19T11:46:42;38.40;99.90
15296;DHT22;7749;49.964;7.890;2022-08-19T11:49:16;37.60;99.90
15296;DHT22;7749;49.964;7.890;2022-08-19T11:51:46;37.10;99.90
15296;DHT22;7749;49.964;7.890;2022-08-19T11:54:15;37.50;99.90
15296;DHT22;7749;49.964;7.890;2022-08-19T11:56:44;38.30;99.90
15296;DHT22;7749;49.964;7.890;2022-08-19T11:59:13;38.60;99.90
15296;DHT22;7749;49.964;7.890;2022-08-19T12:01:41;38.80;99.90
15296;DHT22;7749;49.964;7.890;2022-08-19T12:04:10;37.10;99.90
15296;DHT22;7749;49.964;7.890;2022-08-19T12:06:40;38.00;99.90
15296;DHT22;7749;49.964;7.890;2022-08-19T12:09:09;38.80;99.90
15296;DHT22;7749;49.964;7.890;2022-08-19T12:11:38;38.90;99.90
15296;DHT22;7749;49.964;7.890;2022-08-19T12:14:10;39.80;99.90
15296;DHT22;7749;49.964;7.890;2022-08-19T12:16:43;39.40;99.90
15296;DHT22;7749;49.964;7.890;2022-08-19T12:19:19;38.60;99.90
15296;DHT22;7749;49.964;7.890;2022-08-19T12:21:49;38.70;99.90
15296;DHT22;7749;49.964;7.890;2022-08-19T12:24:18;38.80;99.90
15296;DHT22;7749;49.964;7.890;2022-08-19T12:26:50;38.50;99.90
15296;DHT22;7749;49.964;7.890;2022-08-19T12:29:21;38.50;99.90
15296;DHT22;7749;49.964;7.890;2022-08-19T12:31:51;38.30;99.90
15296;DHT22;7749;49.964;7.890;2022-08-19T12:34:19;38.70;99.90
15296;DHT22;7749;49.964;7.890;2022-08-19T12:36:47;39.90;99.90
15296;DHT22;7749;49.964;7.890;2022-08-19T12:39:17;39.60;99.90
15296;DHT22;7749;49.964;7.890;2022-08-19T12:41:45;39.40;99.90
15296;DHT22;7749;49.964;7.890;2022-08-19T12:44:21;38.00;99.90
15296;DHT22;7749;49.964;7.890;2022-08-19T12:47:00;36.30;99.90
15296;DHT22;7749;49.964;7.890;2022-08-19T12:49:30;36.70;99.90
15296;DHT22;7749;49.964;7.890;2022-08-19T12:52:24;38.40;99.90
15296;DHT22;7749;49.964;7.890;2022-08-19T12:54:54;38.60;99.90
15296;DHT22;7749;49.964;7.890;2022-08-19T12:57:27;37.90;99.90
15296;DHT22;7749;49.964;7.890;2022-08-19T13:02:44;39.30;99.90
15296;DHT22;7749;49.964;7.890;2022-08-19T13:05:16;39.10;99.90
15296;DHT22;7749;49.964;7.890;2022-08-19T13:07:44;39.40;99.90
15296;DHT22;7749;49.964;7.890;2022-08-19T13:10:14;39.80;99.90
15296;DHT22;7749;49.964;7.890;2022-08-19T13:12:44;38.50;99.90
15296;DHT22;7749;49.964;7.890;2022-08-19T13:15:13;38.60;99.90
15296;DHT22;7749;49.964;7.890;2022-08-19T13:17:42;38.00;99.90
15296;DHT22;7749;49.964;7.890;2022-08-19T13:20:10;38.50;99.90
15296;DHT22;7749;49.964;7.890;2022-08-19T13:22:38;39.90;99.90
15296;DHT22;7749;49.964;7.890;2022-08-19T13:25:07;37.70;99.90
15296;DHT22;7749;49.964;7.890;2022-08-19T13:27:38;36.00;99.90
15296;DHT22;7749;49.964;7.890;2022-08-19T13:30:08;35.20;99.90
15296;DHT22;7749;49.964;7.890;2022-08-19T13:32:55;34.00;99.90
15296;DHT22;7749;49.964;7.890;2022-08-19T13:38:11;36.20;99.90
15296;DHT22;7749;49.964;7.890;2022-08-19T13:40:40;37.20;99.90
15296;DHT22;7749;49.964;7.890;2022-08-19T13:43:09;37.80;99.90
15296;DHT22;7749;49.964;7.890;2022-08-19T13:45:51;39.00;99.90
15296;DHT22;7749;49.964;7.890;2022-08-19T13:48:22;38.70;99.90
15296;DHT22;7749;49.964;7.890;2022-08-19T13:50:50;37.30;99.90
15296;DHT22;7749;49.964;7.890;2022-08-19T13:53:18;36.00;99.90
15296;DHT22;7749;49.964;7.890;2022-08-19T13:55:46;33.90;99.90
15296;DHT22;7749;49.964;7.890;2022-08-19T13:58:14;32.60;99.90
15296;DHT22;7749;49.964;7.890;2022-08-19T14:00:44;31.60;99.90
15296;DHT22;7749;49.964;7.890;2022-08-19T14:03:12;31.80;99.90
15296;DHT22;7749;49.964;7.890;2022-08-19T14:05:40;33.10;99.90
15296;DHT22;7749;49.964;7.890;2022-08-19T14:08:08;33.90;99.90
15296;DHT22;7749;49.964;7.890;2022-08-19T14:10:36;35.40;99.90
15296;DHT22;7749;49.964;7.890;2022-08-19T14:13:04;37.00;99.90
15296;DHT22;7749;49.964;7.890;2022-08-19T14:15:32;38.10;99.90
15296;DHT22;7749;49.964;7.890;2022-08-19T14:18:02;37.00;99.90
15296;DHT22;7749;49.964;7.890;2022-08-19T14:20:30;34.70;99.90
15296;DHT22;7749;49.964;7.890;2022-08-19T14:22:57;34.10;99.90
15296;DHT22;7749;49.964;7.890;2022-08-19T14:25:29;33.30;99.90
15296;DHT22;7749;49.964;7.890;2022-08-19T14:27:59;34.00;99.90
15296;DHT22;7749;49.964;7.890;2022-08-19T14:30:30;36.00;99.90
15296;DHT22;7749;49.964;7.890;2022-08-19T14:33:00;36.80;99.90
15296;DHT22;7749;49.964;7.890;2022-08-19T14:35:28;36.40;99.90
15296;DHT22;7749;49.964;7.890;2022-08-19T14:37:56;36.80;99.90
15296;DHT22;7749;49.964;7.890;2022-08-19T14:40:28;36.20;99.90
15296;DHT22;7749;49.964;7.890;2022-08-19T14:42:59;36.20;99.90
15296;DHT22;7749;49.964;7.890;2022-08-19T14:45:36;35.60;99.90
15296;DHT22;7749;49.964;7.890;2022-08-19T14:48:08;34.90;99.90
15296;DHT22;7749;49.964;7.890;2022-08-19T14:50:46;34.70;99.90
15296;DHT22;7749;49.964;7.890;2022-08-19T14:53:15;33.90;99.90
15296;DHT22;7749;49.964;7.890;2022-08-19T14:55:45;33.70;99.90
15296;DHT22;7749;49.964;7.890;2022-08-19T14:58:13;33.90;99.90
15296;DHT22;7749;49.964;7.890;2022-08-19T15:00:59;33.70;99.90
15296;DHT22;7749;49.964;7.890;2022-08-19T15:03:28;33.40;99.90
15296;DHT22;7749;49.964;7.890;2022-08-19T15:05:56;33.30;99.90
15296;DHT22;7749;49.964;7.890;2022-08-19T15:08:25;32.50;99.90
15296;DHT22;7749;49.964;7.890;2022-08-19T15:10:55;32.60;99.90
15296;DHT22;7749;49.964;7.890;2022-08-19T15:13:23;33.70;99.90
15296;DHT22;7749;49.964;7.890;2022-08-19T15:15:52;35.00;99.90
15296;DHT22;7749;49.964;7.890;2022-08-19T15:18:20;34.60;99.90
15296;DHT22;7749;49.964;7.890;2022-08-19T15:20:49;35.60;99.90
15296;DHT22;7749;49.964;7.890;2022-08-19T15:23:19;36.00;99.90
15296;DHT22;7749;49.964;7.890;2022-08-19T15:25:47;37.80;99.90
15296;DHT22;7749;49.964;7.890;2022-08-19T15:28:15;37.20;99.90
15296;DHT22;7749;49.964;7.890;2022-08-19T15:30:44;34.90;99.90
15296;DHT22;7749;49.964;7.890;2022-08-19T15:33:15;33.30;99.90
15296;DHT22;7749;49.964;7.890;2022-08-19T15:35:47;32.70;99.90
15296;DHT22;7749;49.964;7.890;2022-08-19T15:38:14;32.00;99.90
15296;DHT22;7749;49.964;7.890;2022-08-19T15:40:44;32.10;99.90
15296;DHT22;7749;49.964;7.890;2022-08-19T15:43:16;33.60;99.90
15296;DHT22;7749;49.964;7.890;2022-08-19T15:45:44;35.40;99.90
15296;DHT22;7749;49.964;7.890;2022-08-19T15:48:16;37.00;99.90
15296;DHT22;7749;49.964;7.890;2022-08-19T15:50:43;37.30;99.90
15296;DHT22;7749;49.964;7.890;2022-08-19T15:53:11;37.00;99.90
15296;DHT22;7749;49.964;7.890;2022-08-19T15:55:44;36.40;99.90
15296;DHT22;7749;49.964;7.890;2022-08-19T15:58:13;37.00;99.90
15296;DHT22;7749;49.964;7.890;2022-08-19T16:01:04;37.50;99.90
15296;DHT22;7749;49.964;7.890;2022-08-19T16:03:55;37.50;99.90
15296;DHT22;7749;49.964;7.890;2022-08-19T16:06:48;38.20;99.90
15296;DHT22;7749;49.964;7.890;2022-08-19T16:09:18;38.70;99.90
15296;DHT22;7749;49.964;7.890;2022-08-19T16:11:58;38.20;99.90
15296;DHT22;7749;49.964;7.890;2022-08-19T16:14:31;38.90;99.90
15296;DHT22;7749;49.964;7.890;2022-08-19T16:16:59;38.80;99.90
15296;DHT22;7749;49.964;7.890;2022-08-19T16:19:26;38.80;99.90
15296;DHT22;7749;49.964;7.890;2022-08-19T16:21:55;39.20;99.90
15296;DHT22;7749;49.964;7.890;2022-08-19T16:24:26;39.80;99.90
15296;DHT22;7749;49.964;7.890;2022-08-19T16:26:55;39.50;99.90
15296;DHT22;7749;49.964;7.890;2022-08-19T16:29:23;39.50;99.90
15296;DHT22;7749;49.964;7.890;2022-08-19T16:32:06;39.10;99.90
15296;DHT22;7749;49.964;7.890;2022-08-19T16:34:37;39.20;99.90
15296;DHT22;7749;49.964;7.890;2022-08-19T16:37:06;39.60;99.90
15296;DHT22;7749;49.964;7.890;2022-08-19T16:39:35;39.50;99.90